createdAt,value
2017-10-08T00:01:10.611Z,96.14
2017-10-08T00:03:36.832Z,95.39
2017-10-08T00:06:03.061Z,95.40
2017-10-08T00:08:29.273Z,95.88
2017-10-08T00:10:55.494Z,95.32
2017-10-08T00:13:21.732Z,94.92
2017-10-08T00:15:47.957Z,96.36
2017-10-08T00:18:14.195Z,96.56
2017-10-08T00:20:40.407Z,95.45
2017-10-08T00:23:06.611Z,95.46
2017-10-08T00:25:32.826Z,95.56
2017-10-08T00:27:59.156Z,95.62
2017-10-08T00:30:25.376Z,95.91
2017-10-08T00:32:51.594Z,95.59
2017-10-08T00:35:17.863Z,95.39
2017-10-08T00:37:44.086Z,95.99
2017-10-08T00:40:10.318Z,95.22
2017-10-08T00:42:36.557Z,95.25
2017-10-08T00:45:02.780Z,95.26
2017-10-08T00:47:29.004Z,95.74
2017-10-08T00:49:55.232Z,96.01
2017-10-08T00:52:21.557Z,96.55
2017-10-08T00:54:47.780Z,94.64
2017-10-08T00:57:14.055Z,95.79
2017-10-08T00:59:40.275Z,96.03
2017-10-08T01:02:06.485Z,96.43
2017-10-08T01:04:32.751Z,96.07
2017-10-08T01:06:58.960Z,96.58
2017-10-08T01:09:25.190Z,96.88
2017-10-08T01:11:51.416Z,96.28
2017-10-08T01:14:17.633Z,96.80
2017-10-08T01:16:43.880Z,96.19
2017-10-08T01:19:10.123Z,95.56
2017-10-08T01:21:36.341Z,96.31
2017-10-08T01:24:02.550Z,95.48
2017-10-08T01:26:29.043Z,95.24
2017-10-08T01:28:55.271Z,95.06
2017-10-08T01:31:21.607Z,93.78
2017-10-08T01:33:47.840Z,93.82
2017-10-08T01:36:14.072Z,93.86
2017-10-08T01:38:40.299Z,93.51
2017-10-08T01:41:06.530Z,93.85
2017-10-08T01:43:32.747Z,93.94
2017-10-08T01:45:58.966Z,94.44
2017-10-08T01:48:25.207Z,93.30
2017-10-08T01:50:51.441Z,93.47
2017-10-08T01:53:18.147Z,92.64
2017-10-08T01:55:45.069Z,93.01
2017-10-08T01:58:11.710Z,93.60
2017-10-08T02:00:38.538Z,93.58
2017-10-08T02:03:05.495Z,93.93
2017-10-08T02:05:31.829Z,93.81
2017-10-08T02:07:58.059Z,92.90
2017-10-08T02:10:24.291Z,91.77
2017-10-08T02:12:50.523Z,91.75
2017-10-08T02:15:16.775Z,93.33
2017-10-08T02:17:42.995Z,92.79
2017-10-08T02:20:09.254Z,92.66
2017-10-08T02:22:35.492Z,92.73
2017-10-08T02:25:01.726Z,92.67
2017-10-08T02:27:27.964Z,93.31
2017-10-08T02:29:54.205Z,92.75
2017-10-08T02:32:20.443Z,91.06
2017-10-08T02:34:46.671Z,91.17
2017-10-08T02:37:12.889Z,92.16
2017-10-08T02:39:39.119Z,91.93
2017-10-08T02:42:05.389Z,93.04
2017-10-08T02:44:31.625Z,92.02
2017-10-08T02:46:57.858Z,91.54
2017-10-08T02:49:24.079Z,92.10
2017-10-08T02:51:50.328Z,91.61
2017-10-08T02:54:16.549Z,91.11
2017-10-08T02:56:42.787Z,92.16
2017-10-08T02:59:09.029Z,92.55
2017-10-08T03:01:35.253Z,92.81
2017-10-08T03:04:01.506Z,92.10
2017-10-08T03:06:27.743Z,92.30
2017-10-08T03:08:53.933Z,92.18
2017-10-08T03:11:20.197Z,92.26
2017-10-08T03:13:46.414Z,92.61
2017-10-08T03:16:12.645Z,92.93
2017-10-08T03:18:38.876Z,92.93
2017-10-08T03:21:05.067Z,94.06
2017-10-08T03:23:31.288Z,94.29
2017-10-08T03:25:57.497Z,93.91
2017-10-08T03:28:23.720Z,94.40
2017-10-08T03:30:49.968Z,93.93
2017-10-08T03:33:16.185Z,94.39
2017-10-08T03:35:42.389Z,93.70
2017-10-08T03:38:08.623Z,93.52
2017-10-08T03:40:34.829Z,94.17
2017-10-08T03:43:01.047Z,94.37
2017-10-08T03:45:27.271Z,94.41
2017-10-08T03:47:53.505Z,93.90
2017-10-08T03:50:19.732Z,93.66
2017-10-08T03:52:45.969Z,94.43
2017-10-08T03:55:12.174Z,94.62
2017-10-08T03:57:38.408Z,93.85
2017-10-08T04:00:04.643Z,94.22
2017-10-08T04:02:30.869Z,94.56
2017-10-08T04:04:57.127Z,94.01
2017-10-08T04:07:23.362Z,94.90
2017-10-08T04:09:49.586Z,94.20
2017-10-08T04:12:15.815Z,93.62
2017-10-08T04:14:42.037Z,94.87
2017-10-08T04:17:08.282Z,93.69
2017-10-08T04:19:34.522Z,94.13
2017-10-08T04:22:00.755Z,94.32
2017-10-08T04:24:26.990Z,93.45
2017-10-08T04:26:53.230Z,92.79
2017-10-08T04:29:19.471Z,93.28
2017-10-08T04:31:45.677Z,93.50
2017-10-08T04:34:11.883Z,94.42
2017-10-08T04:36:38.087Z,94.44
2017-10-08T04:39:04.295Z,93.74
2017-10-08T04:41:30.522Z,94.15
2017-10-08T04:43:56.735Z,94.15
2017-10-08T04:46:23.669Z,93.52
2017-10-08T04:48:50.073Z,92.83
2017-10-08T04:51:16.284Z,93.07
2017-10-08T04:53:42.502Z,93.08
2017-10-08T04:56:08.761Z,93.59
2017-10-08T05:01:07.410Z,92.78
2017-10-08T05:03:33.614Z,92.32
2017-10-08T05:05:59.805Z,92.98
2017-10-08T05:08:26.032Z,92.25
2017-10-08T05:10:52.267Z,92.74
2017-10-08T05:13:18.479Z,92.71
2017-10-08T05:15:44.716Z,93.35
2017-10-08T05:18:10.969Z,94.20
2017-10-08T05:20:37.207Z,92.49
2017-10-08T05:23:03.453Z,92.93
2017-10-08T05:25:29.694Z,93.15
2017-10-08T05:27:55.906Z,92.53
2017-10-08T05:30:22.133Z,93.64
2017-10-08T05:32:48.355Z,95.36
2017-10-08T05:35:14.565Z,93.57
2017-10-08T05:37:40.789Z,92.76
2017-10-08T05:40:07.019Z,92.60
2017-10-08T05:42:33.230Z,91.77
2017-10-08T05:44:59.422Z,91.11
2017-10-08T05:47:25.737Z,91.70
2017-10-08T05:49:51.957Z,91.94
2017-10-08T05:52:18.167Z,91.69
2017-10-08T05:54:44.387Z,91.42
2017-10-08T05:57:10.602Z,89.16
2017-10-08T05:59:36.805Z,90.38
2017-10-08T06:02:03.034Z,90.47
2017-10-08T06:04:29.247Z,90.98
2017-10-08T06:06:55.470Z,91.75
2017-10-08T06:09:21.694Z,92.11
2017-10-08T06:11:47.905Z,91.35
2017-10-08T06:14:14.123Z,89.48
2017-10-08T06:16:40.338Z,91.01
2017-10-08T06:19:06.544Z,90.68
2017-10-08T06:21:32.737Z,91.80
2017-10-08T06:23:58.942Z,91.59
2017-10-08T06:26:25.255Z,91.63
2017-10-08T06:28:51.477Z,91.73
2017-10-08T06:31:17.678Z,91.69
2017-10-08T06:33:43.891Z,90.68
2017-10-08T06:36:10.101Z,90.67
2017-10-08T06:38:36.326Z,90.38
2017-10-08T06:41:02.545Z,90.63
2017-10-08T06:43:28.757Z,90.92
2017-10-08T06:45:54.956Z,91.07
2017-10-08T06:48:21.211Z,92.49
2017-10-08T06:50:47.406Z,91.39
2017-10-08T06:53:13.649Z,89.99
2017-10-08T06:55:39.857Z,92.24
2017-10-08T06:58:06.055Z,91.14
2017-10-08T07:00:32.400Z,90.93
2017-10-08T07:02:58.608Z,91.67
2017-10-08T07:05:24.802Z,90.89
2017-10-08T07:07:51.042Z,91.62
2017-10-08T07:10:17.282Z,91.28
2017-10-08T07:12:43.497Z,91.21
2017-10-08T07:15:09.712Z,89.55
2017-10-08T07:17:35.926Z,92.27
2017-10-08T07:20:02.156Z,90.06
2017-10-08T07:22:28.445Z,89.89
2017-10-08T07:24:54.654Z,90.36
2017-10-08T07:27:20.866Z,90.25
2017-10-08T07:29:47.138Z,88.92
2017-10-08T07:32:13.325Z,90.63
2017-10-08T07:34:39.538Z,88.98
2017-10-08T07:37:05.746Z,87.28
2017-10-08T07:39:31.954Z,87.03
2017-10-08T07:41:58.186Z,86.35
2017-10-08T07:44:24.402Z,87.39
2017-10-08T07:46:50.602Z,89.47
2017-10-08T07:49:16.813Z,89.08
2017-10-08T07:51:43.057Z,87.55
2017-10-08T07:54:09.274Z,86.59
2017-10-08T07:56:35.496Z,87.75
2017-10-08T07:59:01.712Z,89.56
2017-10-08T08:01:27.960Z,87.61
2017-10-08T08:03:54.160Z,88.52
2017-10-08T08:06:20.388Z,87.89
2017-10-08T08:08:46.589Z,89.25
2017-10-08T08:11:12.805Z,88.48
2017-10-08T08:13:39.027Z,86.75
2017-10-08T08:16:05.256Z,87.72
2017-10-08T08:18:31.451Z,87.44
2017-10-08T08:20:57.671Z,87.83
2017-10-08T08:23:23.884Z,87.20
2017-10-08T08:25:50.087Z,86.74
2017-10-08T08:28:16.308Z,85.72
2017-10-08T08:30:42.508Z,86.05
2017-10-08T08:33:08.724Z,85.37
2017-10-08T08:35:34.923Z,85.09
2017-10-08T08:38:01.122Z,83.67
2017-10-08T08:40:27.320Z,84.20
2017-10-08T08:42:53.525Z,83.51
2017-10-08T08:45:19.733Z,82.58
2017-10-08T08:47:45.940Z,82.64
2017-10-08T08:50:12.152Z,83.07
2017-10-08T08:52:38.367Z,82.29
2017-10-08T08:55:04.564Z,79.27
2017-10-08T08:57:30.783Z,78.29
2017-10-08T08:59:56.997Z,74.21
2017-10-08T09:02:23.205Z,75.66
2017-10-08T09:04:49.423Z,73.12
2017-10-08T09:07:15.640Z,70.84
2017-10-08T09:09:41.876Z,72.52
2017-10-08T09:12:08.092Z,72.17
2017-10-08T09:14:34.294Z,73.81
2017-10-08T09:17:00.502Z,73.48
2017-10-08T09:19:26.766Z,75.90
2017-10-08T09:21:52.983Z,76.77
2017-10-08T09:24:19.206Z,75.99
2017-10-08T09:26:45.421Z,76.15
2017-10-08T09:29:11.626Z,76.57
2017-10-08T09:31:37.833Z,77.50
2017-10-08T09:34:04.045Z,77.93
2017-10-08T09:36:30.259Z,78.81
2017-10-08T09:38:56.483Z,77.04
2017-10-08T09:41:22.719Z,78.55
2017-10-08T09:43:48.939Z,78.75
2017-10-08T09:46:15.167Z,78.46
2017-10-08T09:48:41.418Z,75.98
2017-10-08T09:51:07.639Z,77.11
2017-10-08T09:53:33.863Z,74.29
2017-10-08T09:56:00.131Z,74.56
2017-10-08T09:58:26.346Z,73.62
2017-10-08T10:00:52.557Z,71.97
2017-10-08T10:03:18.825Z,72.31
2017-10-08T10:05:45.035Z,72.03
2017-10-08T10:08:11.262Z,74.47
2017-10-08T10:10:37.545Z,74.08
2017-10-08T10:13:03.786Z,74.68
2017-10-08T10:15:30.041Z,75.92
2017-10-08T10:17:56.340Z,76.31
2017-10-08T10:20:22.556Z,76.07
2017-10-08T10:22:48.767Z,75.41
2017-10-08T10:25:15.019Z,77.46
2017-10-08T10:27:41.235Z,78.28
2017-10-08T10:30:07.441Z,77.52
2017-10-08T10:32:33.737Z,77.43
2017-10-08T10:34:59.980Z,77.75
2017-10-08T10:37:26.196Z,75.53
2017-10-08T10:39:52.456Z,74.61
2017-10-08T10:42:18.691Z,75.43
2017-10-08T10:44:44.916Z,75.54
2017-10-08T10:47:11.165Z,75.10
2017-10-08T10:49:37.373Z,73.80
2017-10-08T10:52:03.600Z,76.26
2017-10-08T10:54:29.806Z,76.57
2017-10-08T10:56:55.996Z,75.00
2017-10-08T10:59:22.236Z,75.15
2017-10-08T11:01:48.594Z,76.18
2017-10-08T11:04:14.811Z,77.21
2017-10-08T11:06:41.029Z,75.88
2017-10-08T11:09:07.238Z,76.37
2017-10-08T11:11:33.435Z,75.74
2017-10-08T11:13:59.728Z,74.87
2017-10-08T11:16:25.985Z,76.06
2017-10-08T11:18:52.275Z,74.20
2017-10-08T11:21:18.493Z,74.62
2017-10-08T11:23:44.742Z,73.41
2017-10-08T11:26:10.979Z,75.80
2017-10-08T11:28:37.181Z,73.91
2017-10-08T11:31:03.504Z,73.71
2017-10-08T11:33:29.764Z,73.27
2017-10-08T11:35:56.055Z,75.98
2017-10-08T11:38:22.282Z,74.26
2017-10-08T11:40:48.512Z,73.99
2017-10-08T11:43:14.824Z,75.83
2017-10-08T11:45:41.112Z,74.72
2017-10-08T11:48:07.314Z,72.90
2017-10-08T11:50:33.515Z,74.15
2017-10-08T11:52:59.725Z,73.35
2017-10-08T11:55:25.986Z,74.02
2017-10-08T11:57:52.196Z,73.97
2017-10-08T12:00:18.406Z,72.77
2017-10-08T12:02:44.625Z,72.97
2017-10-08T12:05:10.957Z,71.20
2017-10-08T12:07:37.187Z,72.20
2017-10-08T12:10:03.474Z,70.67
2017-10-08T12:12:29.676Z,70.78
2017-10-08T12:14:55.910Z,71.91
2017-10-08T12:17:22.140Z,71.69
2017-10-08T12:19:48.361Z,71.70
2017-10-08T12:22:14.577Z,68.42
2017-10-08T12:24:40.787Z,68.90
2017-10-08T12:27:06.990Z,66.76
2017-10-08T12:29:33.207Z,66.96
2017-10-08T12:31:59.443Z,64.91
2017-10-08T12:34:25.646Z,61.96
2017-10-08T12:36:51.842Z,63.43
2017-10-08T12:39:18.085Z,64.22
2017-10-08T12:41:44.315Z,63.57
2017-10-08T12:44:10.528Z,63.48
2017-10-08T12:46:36.751Z,63.93
2017-10-08T12:49:02.964Z,63.08
2017-10-08T12:51:29.187Z,63.21
2017-10-08T12:53:55.410Z,66.30
2017-10-08T12:56:21.623Z,64.69
2017-10-08T12:58:47.818Z,64.85
2017-10-08T13:01:14.055Z,63.85
2017-10-08T13:03:40.331Z,64.30
2017-10-08T13:06:06.587Z,64.01
2017-10-08T13:08:32.829Z,64.68
2017-10-08T13:10:59.104Z,64.79
2017-10-08T13:13:25.358Z,64.59
2017-10-08T13:15:51.578Z,64.49
2017-10-08T13:18:17.862Z,64.91
2017-10-08T13:20:44.149Z,64.40
2017-10-08T13:23:10.443Z,65.86
2017-10-08T13:25:36.731Z,65.61
2017-10-08T13:28:02.985Z,62.60
2017-10-08T13:30:29.259Z,62.08
2017-10-08T13:32:55.476Z,62.70
2017-10-08T13:35:21.675Z,64.41
2017-10-08T13:37:47.890Z,64.73
2017-10-08T13:40:14.109Z,63.26
2017-10-08T13:42:40.378Z,62.58
2017-10-08T13:45:06.609Z,61.16
2017-10-08T13:47:32.864Z,61.05
2017-10-08T13:49:59.174Z,59.56
2017-10-08T13:52:25.406Z,58.96
2017-10-08T13:54:51.607Z,59.30
2017-10-08T13:57:17.803Z,60.36
2017-10-08T13:59:44.015Z,61.39
2017-10-08T14:02:10.271Z,60.54
2017-10-08T14:04:36.514Z,62.56
2017-10-08T14:07:02.734Z,62.94
2017-10-08T14:09:28.989Z,62.60
2017-10-08T14:11:55.212Z,65.01
2017-10-08T14:14:21.564Z,60.60
2017-10-08T14:16:47.777Z,61.34
2017-10-08T14:19:14.017Z,60.08
2017-10-08T14:21:40.237Z,59.58
2017-10-08T14:24:06.592Z,60.14
2017-10-08T14:26:32.811Z,59.09
2017-10-08T14:28:59.034Z,58.93
2017-10-08T14:31:25.236Z,59.41
2017-10-08T14:33:51.486Z,60.74
2017-10-08T14:36:17.758Z,59.37
2017-10-08T14:38:44.160Z,59.77
2017-10-08T14:41:10.360Z,59.17
2017-10-08T14:43:36.554Z,59.46
2017-10-08T14:46:02.762Z,60.38
2017-10-08T14:48:28.977Z,59.79
2017-10-08T14:50:55.296Z,60.00
2017-10-08T14:53:21.505Z,60.00
2017-10-08T14:55:47.790Z,60.59
2017-10-08T14:58:14.017Z,60.69
2017-10-08T15:00:40.244Z,62.52
2017-10-08T15:03:06.446Z,61.49
2017-10-08T15:05:32.673Z,61.56
2017-10-08T15:07:58.895Z,61.16
2017-10-08T15:10:25.120Z,63.31
2017-10-08T15:12:51.353Z,62.82
2017-10-08T15:15:17.567Z,63.06
2017-10-08T15:17:43.885Z,64.41
2017-10-08T15:20:10.281Z,64.82
2017-10-08T15:22:36.492Z,65.92
2017-10-08T15:25:02.841Z,66.52
2017-10-08T15:27:29.064Z,68.40
2017-10-08T15:29:55.287Z,67.64
2017-10-08T15:32:21.557Z,69.20
2017-10-08T15:34:47.847Z,70.88
2017-10-08T15:37:14.282Z,74.48
2017-10-08T15:39:40.687Z,73.86
2017-10-08T15:42:06.912Z,77.67
2017-10-08T15:44:33.153Z,78.53
2017-10-08T15:46:59.386Z,78.96
2017-10-08T15:49:25.643Z,81.15
2017-10-08T15:51:51.888Z,82.56
2017-10-08T15:54:18.084Z,82.19
2017-10-08T15:56:44.334Z,83.07
2017-10-08T15:59:10.554Z,83.42
2017-10-08T16:01:36.790Z,83.97
2017-10-08T16:04:02.990Z,84.88
2017-10-08T16:06:29.208Z,84.39
2017-10-08T16:08:55.481Z,83.95
2017-10-08T16:11:21.679Z,85.39
2017-10-08T16:13:47.868Z,85.54
2017-10-08T16:16:14.095Z,85.84
2017-10-08T16:18:40.317Z,85.27
2017-10-08T16:21:06.622Z,86.10
2017-10-08T16:23:32.848Z,86.70
2017-10-08T16:25:59.056Z,86.69
2017-10-08T16:28:25.279Z,85.13
2017-10-08T16:30:51.494Z,85.80
2017-10-08T16:33:17.742Z,87.18
2017-10-08T16:35:43.940Z,88.77
2017-10-08T16:38:10.168Z,89.60
2017-10-08T16:40:36.380Z,89.69
2017-10-08T16:43:02.674Z,88.66
2017-10-08T16:45:28.951Z,88.39
2017-10-08T16:47:55.174Z,88.37
2017-10-08T16:50:21.382Z,89.29
2017-10-08T16:52:47.591Z,90.24
2017-10-08T16:55:13.821Z,90.51
2017-10-08T16:57:40.099Z,90.63
2017-10-08T17:00:06.315Z,89.58
2017-10-08T17:02:32.531Z,89.80
2017-10-08T17:04:58.922Z,90.93
2017-10-08T17:07:25.180Z,90.75
2017-10-08T17:09:51.428Z,90.76
2017-10-08T17:12:17.681Z,90.99
2017-10-08T17:14:43.939Z,90.93
2017-10-08T17:17:10.240Z,91.12
2017-10-08T17:19:37.135Z,91.53
2017-10-08T17:22:03.555Z,91.73
2017-10-08T17:24:29.899Z,92.10
2017-10-08T17:26:56.127Z,92.36
2017-10-08T17:29:22.347Z,92.10
2017-10-08T17:31:48.642Z,92.07
2017-10-08T17:34:14.901Z,92.76
2017-10-08T17:36:41.174Z,92.94
2017-10-08T17:39:07.380Z,93.17
2017-10-08T17:41:33.596Z,93.31
2017-10-08T17:43:59.826Z,93.73
2017-10-08T17:46:26.051Z,93.62
2017-10-08T17:48:52.330Z,93.27
2017-10-08T17:51:18.541Z,93.38
2017-10-08T17:53:44.767Z,93.45
2017-10-08T17:56:11.067Z,93.45
2017-10-08T17:58:37.292Z,93.91
2017-10-08T18:01:03.502Z,93.63
2017-10-08T18:03:29.735Z,93.37
2017-10-08T18:05:55.951Z,93.67
2017-10-08T18:08:22.206Z,93.93
2017-10-08T18:10:48.433Z,93.81
2017-10-08T18:13:14.649Z,93.59
2017-10-08T18:15:40.874Z,93.49
2017-10-08T18:18:07.055Z,93.32
2017-10-08T18:20:33.266Z,93.55
2017-10-08T18:22:59.487Z,93.47
2017-10-08T18:25:25.674Z,93.40
2017-10-08T18:27:52.116Z,93.12
2017-10-08T18:30:18.308Z,92.70
2017-10-08T18:32:44.529Z,92.59
2017-10-08T18:35:10.735Z,92.36
2017-10-08T18:37:36.943Z,91.84
2017-10-08T18:40:03.183Z,92.40
2017-10-08T18:42:29.448Z,92.58
2017-10-08T18:44:55.674Z,92.32
2017-10-08T18:47:21.959Z,92.61
2017-10-08T18:49:48.166Z,92.67
2017-10-08T18:52:14.371Z,93.20
2017-10-08T18:54:40.604Z,93.58
2017-10-08T18:57:06.810Z,93.68
2017-10-08T18:59:33.013Z,92.89
2017-10-08T19:01:59.316Z,93.21
2017-10-08T19:04:25.516Z,93.40
2017-10-08T19:06:51.731Z,93.27
2017-10-08T19:09:17.954Z,93.44
2017-10-08T19:11:44.184Z,93.32
2017-10-08T19:14:10.401Z,93.06
2017-10-08T19:16:36.630Z,92.97
2017-10-08T19:19:02.864Z,92.77
2017-10-08T19:21:29.058Z,92.06
2017-10-08T19:23:55.275Z,91.43
2017-10-08T19:26:21.477Z,90.42
2017-10-08T19:28:47.705Z,91.03
2017-10-08T19:31:13.971Z,92.55
2017-10-08T19:33:40.198Z,92.60
2017-10-08T19:36:06.399Z,91.63
2017-10-08T19:38:32.617Z,91.22
2017-10-08T19:40:58.817Z,91.21
2017-10-08T19:43:25.057Z,91.79
2017-10-08T19:45:51.429Z,91.92
2017-10-08T19:48:17.639Z,92.33
2017-10-08T19:50:44.143Z,92.90
2017-10-08T19:53:10.390Z,92.92
2017-10-08T19:55:36.623Z,92.56
2017-10-08T19:58:02.999Z,92.11
2017-10-08T20:00:29.228Z,92.00
2017-10-08T20:02:55.448Z,91.99
2017-10-08T20:05:21.736Z,91.55
2017-10-08T20:07:47.981Z,91.69
2017-10-08T20:10:14.202Z,91.28
2017-10-08T20:12:40.420Z,92.01
2017-10-08T20:15:06.702Z,90.97
2017-10-08T20:17:32.927Z,91.29
2017-10-08T20:19:59.155Z,92.11
2017-10-08T20:22:25.373Z,91.90
2017-10-08T20:24:51.603Z,91.70
2017-10-08T20:27:17.870Z,92.18
2017-10-08T20:29:44.114Z,92.36
2017-10-08T20:32:10.339Z,92.39
2017-10-08T20:34:36.589Z,92.58
2017-10-08T20:37:02.815Z,92.16
2017-10-08T20:39:29.065Z,92.06
2017-10-08T20:41:55.300Z,92.58
2017-10-08T20:44:21.508Z,92.56
2017-10-08T20:46:47.735Z,92.57
2017-10-08T20:49:13.953Z,92.69
2017-10-08T20:51:40.228Z,92.37
2017-10-08T20:54:06.484Z,92.38
2017-10-08T20:56:32.724Z,92.34
2017-10-08T20:58:58.952Z,91.73
2017-10-08T21:01:25.172Z,91.92
2017-10-08T21:03:51.417Z,92.19
2017-10-08T21:06:17.620Z,91.26
2017-10-08T21:08:43.831Z,90.53
2017-10-08T21:11:10.070Z,90.95
2017-10-08T21:13:36.312Z,90.99
2017-10-08T21:16:02.552Z,91.00
2017-10-08T21:18:28.948Z,91.01
2017-10-08T21:20:55.169Z,90.68
2017-10-08T21:23:21.370Z,90.84
2017-10-08T21:25:47.589Z,90.97
2017-10-08T21:28:13.888Z,91.10
2017-10-08T21:30:40.115Z,90.99
2017-10-08T21:33:06.365Z,90.98
2017-10-08T21:35:32.616Z,90.74
2017-10-08T21:37:58.826Z,90.83
2017-10-08T21:40:25.046Z,90.85
2017-10-08T21:42:51.445Z,91.34
2017-10-08T21:45:17.663Z,90.93
2017-10-08T21:47:43.942Z,90.79
2017-10-08T21:50:10.152Z,90.91
2017-10-08T21:52:36.401Z,91.87
2017-10-08T21:55:02.651Z,91.68
2017-10-08T21:57:28.888Z,91.26
2017-10-08T21:59:55.127Z,90.90
2017-10-08T22:02:21.405Z,90.68
2017-10-08T22:04:47.635Z,91.16
2017-10-08T22:07:13.879Z,91.70
2017-10-08T22:09:40.116Z,91.47
2017-10-08T22:12:06.378Z,91.54
2017-10-08T22:14:32.635Z,91.58
2017-10-08T22:16:58.864Z,92.10
2017-10-08T22:19:25.109Z,92.09
2017-10-08T22:21:51.324Z,91.78
2017-10-08T22:24:17.557Z,91.64
2017-10-08T22:26:43.788Z,91.54
2017-10-08T22:29:10.018Z,91.74
2017-10-08T22:31:36.255Z,92.37
2017-10-08T22:34:02.483Z,92.42
2017-10-08T22:36:28.753Z,92.70
2017-10-08T22:38:54.993Z,92.91
2017-10-08T22:41:21.224Z,93.33
2017-10-08T22:43:47.471Z,93.35
2017-10-08T22:46:13.702Z,93.88
2017-10-08T22:48:39.945Z,94.10
2017-10-08T22:51:06.173Z,93.97
2017-10-08T22:53:32.415Z,94.19
2017-10-08T22:55:58.645Z,94.14
2017-10-08T22:58:24.863Z,94.12
2017-10-08T23:00:51.185Z,94.12
2017-10-08T23:03:17.403Z,94.68
2017-10-08T23:05:43.634Z,94.75
2017-10-08T23:08:09.879Z,94.28
2017-10-08T23:10:36.189Z,93.42
2017-10-08T23:13:02.436Z,93.97
2017-10-08T23:15:28.679Z,93.65
2017-10-08T23:17:54.894Z,93.32
2017-10-08T23:20:21.217Z,92.41
2017-10-08T23:22:47.447Z,92.58
2017-10-08T23:25:13.717Z,92.07
2017-10-08T23:27:39.930Z,92.15
2017-10-08T23:30:06.145Z,92.13
2017-10-08T23:32:32.383Z,91.99
2017-10-08T23:34:58.601Z,91.90
2017-10-08T23:37:24.856Z,92.12
2017-10-08T23:39:51.091Z,92.75
2017-10-08T23:42:17.319Z,92.63
2017-10-08T23:44:43.572Z,92.69
2017-10-08T23:47:09.793Z,93.13
2017-10-08T23:49:36.053Z,93.87
2017-10-08T23:52:02.377Z,94.36
2017-10-08T23:54:28.615Z,94.70
2017-10-08T23:56:54.860Z,94.69
2017-10-08T23:59:21.259Z,94.66
